Lynn, Arkansas
Current Conditions -  °F | °C
As of 6:15 PM on Thursday 27 Nov 2014 (Local Time) from KARG Reporting Station
Clear Clear  
Wind Chill: 39°   Ceiling: Unl
Heat Index: 39°   Visibility: 10mi
Dew Point: 27°   Wind: 3mph
Humidity: 61%   Direction: 170°S
Pressure: 30.46"   Gusts: NA
Location:  36.01°N, 91.25°W
Report Text: KARG 280015Z AUTO 17003KT 10SM CLR 04/M03 A3046 RMK AO1
Loading
Personal Weather Stations






























Interactive Weather Map New forecast layout! Learn more

10-Day Weather Forecast

Advertisements
Track Severe Weather on mobile